Bei Facebook empfehlenBei Twitter postenGoogle plusPinterest

Das Wetter im Erzgebirge am 09.06.2017

Wetter und Klima am 09.06.2017 Holzhau im Erzgebirge (630m ü.NN)
Letzte gemessene Temperatur und Uhrzeit der Messung23:45:00 Uhr12.50 °C
Temperatur (Maximum / Höchstwert) und Uhrzeit der Messung16:30:00 Uhr25.90 °C
Temperatur (Minimum / Tiefstwert) und Uhrzeit der Messung05:00:007.20 °C
Errechneter Absolutwert der Temperaturschwankungen zwischen Tmin und Tmax des Tages18.70 K
Errechnete Tagesmitteltemperatur17.06667 °C
Gesamt - Niederschlag des Tages (in flüssiger Form)0.52 Liter / m²
Luftdruck (Maximum / Höchstwert) und Zeitpunkt der Messung01:00:00 Uhr1014.90 hPa
Luftdruck (Minimum / Tiefstwert) und Zeitpunkt der Messung18:15:00 Uhr1011.30 hPa
Errechneter Absolutwert der Luftdruckschwankungen des Tages3.60 hPa
Höchste gemessene Windgeschwindigkeit und Uhrzeit der Messung15:00:00 Uhr75.24 km/h
Errechnete Windhäufigkeit in Relation zu den Messwerten des Tages19.79167 %
Niedrigste Windkühle (Windchill) und Zeitpunkt der Messung05:00:00 Uhr7.20 °C
Taupunkt (Maximum / Höchstwert) und Uhrzeit der Messung21:30:00 Uhr11.60 °C
Taupunkt (Minimum / Tiefstwert) und Uhrzeit der Messung04:45:004.70 °C
Anzahl der automatisch eingelesenen Messwerte 96

Detaillierte Wetter- und Klima- Messwerte für den 09.06.2017 in Holzhau im Erzgebirge (630m ü.NN)
ZeitTemperaturLuftdruckRel. LuftfeuchteWindWindrichtungWindchillTaupunktNiederschlag l/m²
23:45:0012.50 °C1013.70 hPa86.00 %10.20 °C0.52
23:30:0012.60 °C1013.30 hPa84.00 %10.00 °C0.52
23:15:0012.70 °C1013.20 hPa84.00 %10.10 °C0.52
23:00:0013.00 °C1013.00 hPa83.00 %10.20 °C0.52
22:45:0013.60 °C1013.00 hPa85.00 %11.10 °C0.52
22:30:0013.80 °C1012.80 hPa84.00 %11.10 °C0.52
22:15:0014.00 °C1012.70 hPa82.00 %11.00 °C0.52
22:00:0014.40 °C1012.50 hPa82.00 %11.40 °C0.52
21:45:0014.90 °C1012.80 hPa79.00 %11.30 °C0.52
21:30:0015.40 °C1012.90 hPa78.00 %11.60 °C 
21:15:0015.90 °C1012.80 hPa72.00 %10.90 °C 
21:00:0016.40 °C1012.90 hPa68.00 %10.50 °C 
20:45:0017.90 °C1012.90 hPa63.00 %10.80 °C 
20:30:0019.30 °C1012.50 hPa57.00 %10.60 °C 
20:15:0019.90 °C1012.10 hPa54.00 %10.30 °C 
20:00:0020.40 °C1012.10 hPa53.00 %10.50 °C 
19:45:0020.90 °C1012.20 hPa52.00 %10.70 °C 
19:30:0021.10 °C1012.20 hPa50.00 %10.30 °C 
19:15:0021.40 °C1012.00 hPa48.00 %9.90 °C 
19:00:0022.10 °C1012.00 hPa46.00 %9.90 °C 
18:45:0023.10 °C1011.50 hPa45.00 %10.50 °C 
18:30:0023.90 °C1011.40 hPa43.00 %10.60 °C 
18:15:0024.40 °C1011.30 hPa43.00 %16.92 km/hS24.40 °C11.00 °C 
18:00:0024.80 °C1011.40 hPa41.00 %10.70 °C 
17:45:0025.10 °C1011.60 hPa41.00 %10.90 °C 
17:30:0025.10 °C1011.70 hPa41.00 %10.90 °C 
17:15:0025.10 °C1011.60 hPa40.00 %10.60 °C 
17:00:0025.30 °C1011.60 hPa39.00 %10.40 °C 
16:45:0025.80 °C1011.50 hPa39.00 %10.80 °C 
16:30:0025.90 °C1011.70 hPa38.00 %10.50 °C 
16:15:0025.70 °C1012.10 hPa40.00 %11.10 °C 
16:00:0025.30 °C1011.90 hPa39.00 %10.40 °C 
15:45:0025.70 °C1012.00 hPa39.00 %10.70 °C 
15:30:0025.40 °C1012.00 hPa38.00 %10.10 °C 
15:15:0025.30 °C1012.00 hPa39.00 %10.40 °C 
15:00:0025.20 °C1012.20 hPa40.00 %75.24 km/hWSW26.50 °C10.60 °C 
14:45:0025.10 °C1012.20 hPa40.00 %53.28 km/hSSW26.50 °C10.60 °C 
14:30:0024.40 °C1012.10 hPa42.00 %10.70 °C 
14:15:0023.90 °C1012.40 hPa43.00 %16.92 km/hOSO23.90 °C10.60 °C 
14:00:0023.80 °C1012.00 hPa42.00 %36.36 km/hSW25.10 °C10.10 °C 
13:45:0023.40 °C1012.30 hPa44.00 %33.84 km/hONO24.70 °C10.50 °C 
13:30:0023.10 °C1012.30 hPa44.00 %10.20 °C 
13:15:0023.00 °C1012.60 hPa44.00 %10.10 °C 
13:00:0023.30 °C1012.50 hPa41.00 %37.44 km/hSW24.50 °C9.30 °C 
12:45:0022.80 °C1012.30 hPa43.00 %9.60 °C 
12:30:0022.30 °C1012.40 hPa42.00 %19.44 km/hSO23.70 °C8.80 °C 
12:15:0022.10 °C1012.30 hPa42.00 %8.60 °C 
12:00:0021.80 °C1012.30 hPa42.00 %8.30 °C 
11:45:0021.90 °C1012.40 hPa41.00 %20.88 km/hSO23.20 °C8.10 °C 
11:30:0021.60 °C1012.60 hPa41.00 %7.80 °C 
11:15:0021.60 °C1012.50 hPa42.00 %8.10 °C 
11:00:0021.50 °C1012.50 hPa42.00 %36.36 km/hWSW22.40 °C8.10 °C 
10:45:0021.30 °C1012.60 hPa42.00 %28.44 km/hONO22.30 °C7.90 °C 
10:30:0020.90 °C1012.80 hPa45.00 %8.50 °C 
10:15:0020.50 °C1012.80 hPa45.00 %2.52 km/hSW20.50 °C8.20 °C 
10:00:0020.20 °C1012.80 hPa47.00 %15.48 km/hNO20.20 °C8.50 °C 
09:45:0019.60 °C1013.00 hPa48.00 %9.00 km/hOSO19.60 °C8.30 °C 
09:30:0019.60 °C1013.00 hPa48.00 %8.30 °C 
09:15:0019.90 °C1013.00 hPa49.00 %16.92 km/hNNW19.90 °C8.90 °C 
09:00:0019.40 °C1013.00 hPa49.00 %28.44 km/hSO20.10 °C8.40 °C 
08:45:0018.90 °C1012.60 hPa50.00 %18.00 km/hOSO19.80 °C8.30 °C 
08:30:0019.00 °C1012.60 hPa50.00 %8.40 °C 
08:15:0019.40 °C1012.70 hPa49.00 %9.00 km/hSO19.40 °C8.40 °C 
08:00:0019.60 °C1012.90 hPa50.00 %8.90 °C 
07:45:0019.80 °C1012.90 hPa51.00 %20.88 km/hONO20.80 °C9.40 °C 
07:30:0018.40 °C1013.00 hPa59.00 %10.30 °C 
07:15:0015.90 °C1013.20 hPa67.00 %9.80 °C 
07:00:0012.80 °C1013.10 hPa75.00 %8.50 °C 
06:45:0011.80 °C1013.00 hPa78.00 %8.10 °C 
06:30:0010.80 °C1013.20 hPa80.00 %7.50 °C 
06:15:009.90 °C1013.30 hPa82.00 %7.00 °C 
06:00:009.10 °C1013.50 hPa84.00 %6.50 °C 
05:45:008.30 °C1013.50 hPa85.00 %5.90 °C 
05:30:007.90 °C1013.70 hPa86.00 %5.70 °C 
05:15:007.40 °C1013.60 hPa86.00 %5.20 °C 
05:00:007.20 °C1013.60 hPa86.00 %5.00 °C 
04:45:007.20 °C1013.80 hPa84.00 %4.70 °C 
04:30:007.80 °C1013.40 hPa84.00 %5.30 °C 
04:15:007.70 °C1013.40 hPa86.00 %5.50 °C 
04:00:007.30 °C1013.50 hPa85.00 %5.00 °C 
03:45:007.30 °C1013.80 hPa84.00 %4.80 °C 
03:30:007.40 °C1014.00 hPa84.00 %4.90 °C 
03:15:007.60 °C1014.20 hPa83.00 %4.90 °C 
03:00:007.80 °C1014.30 hPa83.00 %5.10 °C 
02:45:007.80 °C1014.40 hPa83.00 %5.10 °C 
02:30:007.80 °C1014.60 hPa82.00 %4.90 °C 
02:15:008.00 °C1014.80 hPa82.00 %5.10 °C 
02:00:008.20 °C1014.70 hPa81.00 %5.10 °C 
01:45:008.30 °C1014.60 hPa81.00 %5.20 °C 
01:30:008.40 °C1014.70 hPa81.00 %5.30 °C 
01:15:008.40 °C1014.70 hPa80.00 %5.20 °C 
01:00:008.40 °C1014.90 hPa80.00 %5.20 °C 
00:45:008.60 °C1014.60 hPa79.00 %5.20 °C 
00:30:008.80 °C1014.70 hPa78.00 %5.20 °C 
00:15:009.30 °C1014.80 hPa76.00 %5.30 °C 
00:00:009.80 °C1014.90 hPa76.00 %5.80 °C 

Permanenter Link zu dieser Seite: Wetter im Erzgebirge am 09.06.2017
Performance-Info: Die Erstellung der Seite / Statistik(en) / Tabelle(n) erforderte 5 Datenbankserver-Abfrage(n) und dauerte 102 Millisekunden. (Dieser Messwert ist von der Gesamt-Auslastung des Servers abhängig.)
Erzgebirge - Wetter | Erzgebirge - Wetter (Mobilgeräte) | Komplette Klimadatenbank